Philadelphia, Pennsylvania
Traffic Map
Current Weather Conditions
Philadelphia, Pennsylvania
Overcast Light Rain
Overcast
14°
Feels Like: 14°
Wind Chill: 14° Ceiling: 8000
Heat Index: 14° Visibility: 10mi
Dew Point: 13° Wind: 15mph
Humidity: 90% Direction: 320° (NW)
Pressure: 29.44in Gusts: 22mph
Raw Report DataKPHL 260254Z 32013G19KT 10SM -RA SCT045 OVC080 14/13 A2944 RMK AO2 LTG DSNT E AND NW TSE24B30E47 SLP968 P0014 60065 T01440128 58010 $
Traffic Incident Summary
Active as of:
Severity:
Category:
InformationThere was an issue retrieving the traffic information for this location. Please try a different location or try again shortly.
Advertisements
Track Severe Weather on mobile